createdAt,value
2018-05-11T00:00:49.264Z,14.70
2018-05-11T00:03:50.534Z,14.80
2018-05-11T00:06:51.925Z,14.80
2018-05-11T00:09:53.179Z,14.90
2018-05-11T00:12:54.432Z,14.80
2018-05-11T00:15:55.689Z,14.90
2018-05-11T00:18:56.985Z,14.90
2018-05-11T00:21:58.250Z,14.80
2018-05-11T00:24:59.497Z,14.90
2018-05-11T00:28:00.792Z,14.70
2018-05-11T00:31:02.810Z,14.80
2018-05-11T00:34:04.074Z,14.70
2018-05-11T00:37:05.366Z,14.70
2018-05-11T00:40:06.606Z,14.60
2018-05-11T00:43:07.859Z,14.60
2018-05-11T00:46:09.102Z,14.60
2018-05-11T00:49:11.126Z,14.70
2018-05-11T00:52:12.369Z,14.70
2018-05-11T00:55:32.237Z,14.70
2018-05-11T00:58:36.898Z,14.60
2018-05-11T01:01:38.217Z,14.70
2018-05-11T01:04:39.496Z,14.70
2018-05-11T01:07:40.743Z,14.70
2018-05-11T01:10:42.023Z,14.60
2018-05-11T01:13:43.310Z,14.50
2018-05-11T01:16:44.574Z,14.50
2018-05-11T01:19:45.842Z,14.60
2018-05-11T01:22:47.097Z,14.50
2018-05-11T01:25:48.344Z,14.40
2018-05-11T01:28:50.322Z,14.40
2018-05-11T01:31:51.590Z,14.30
2018-05-11T01:34:53.630Z,14.20
2018-05-11T01:37:54.898Z,14.20
2018-05-11T01:40:56.161Z,14.10
2018-05-11T01:43:57.425Z,14.10
2018-05-11T01:46:58.682Z,14.10
2018-05-11T01:49:59.942Z,14.00
2018-05-11T01:53:01.187Z,14.10
2018-05-11T01:56:02.465Z,14.10
2018-05-11T01:59:03.691Z,14.00
2018-05-11T02:02:05.692Z,13.90
2018-05-11T02:05:06.984Z,13.80
2018-05-11T02:08:08.264Z,13.80
2018-05-11T02:11:09.533Z,13.80
2018-05-11T02:14:10.790Z,13.80
2018-05-11T02:17:12.033Z,13.80
2018-05-11T02:20:13.314Z,13.60
2018-05-11T02:23:14.579Z,13.60
2018-05-11T02:26:15.813Z,13.60
2018-05-11T02:29:17.066Z,13.50
2018-05-11T02:32:18.322Z,13.60
2018-05-11T02:35:19.607Z,13.60
2018-05-11T02:38:20.875Z,13.60
2018-05-11T02:41:22.188Z,13.50
2018-05-11T02:44:24.193Z,13.50
2018-05-11T02:47:25.468Z,13.50
2018-05-11T02:50:26.722Z,13.40
2018-05-11T02:53:27.968Z,13.40
2018-05-11T02:56:29.212Z,13.50
2018-05-11T02:59:31.196Z,13.40
2018-05-11T03:02:33.212Z,13.40
2018-05-11T03:05:34.444Z,13.40
2018-05-11T03:08:36.426Z,13.40
2018-05-11T03:11:38.434Z,13.50
2018-05-11T03:14:39.714Z,13.50
2018-05-11T03:17:41.718Z,13.50
2018-05-11T03:20:42.977Z,13.40
2018-05-11T03:23:44.234Z,13.40
2018-05-11T03:26:45.483Z,13.40
2018-05-11T03:29:46.755Z,13.40
2018-05-11T03:32:48.016Z,13.50
2018-05-11T03:35:49.277Z,13.40
2018-05-11T03:38:50.546Z,13.40
2018-05-11T03:41:51.792Z,13.40
2018-05-11T03:44:53.062Z,13.40
2018-05-11T03:47:54.317Z,13.40
2018-05-11T03:50:55.551Z,13.40
2018-05-11T03:53:58.404Z,13.40
2018-05-11T03:57:00.565Z,13.40
2018-05-11T04:00:01.948Z,13.40
2018-05-11T04:03:22.429Z,13.50
2018-05-11T04:06:42.204Z,13.50
2018-05-11T04:09:45.285Z,13.60
2018-05-11T04:12:46.538Z,13.60
2018-05-11T04:15:47.777Z,13.60
2018-05-11T04:18:49.018Z,13.50
2018-05-11T04:21:50.262Z,13.60
2018-05-11T04:24:52.286Z,13.70
2018-05-11T04:27:53.541Z,13.70
2018-05-11T04:30:54.825Z,13.70
2018-05-11T04:33:56.133Z,13.60
2018-05-11T04:36:58.144Z,13.80
2018-05-11T04:39:59.396Z,13.80
2018-05-11T04:43:00.622Z,13.70
2018-05-11T04:46:01.860Z,13.80
2018-05-11T04:49:03.146Z,13.80
2018-05-11T04:52:04.405Z,13.90
2018-05-11T04:55:05.689Z,14.00
2018-05-11T04:58:07.669Z,14.00
2018-05-11T05:01:09.661Z,14.00
2018-05-11T05:04:11.642Z,14.00
2018-05-11T05:07:13.609Z,14.00
2018-05-11T05:10:15.605Z,14.00
2018-05-11T05:13:17.626Z,15.10
2018-05-11T05:16:18.896Z,15.10
2018-05-11T05:19:20.189Z,15.40
2018-05-11T05:22:21.453Z,14.90
2018-05-11T05:25:22.694Z,14.60
2018-05-11T05:28:23.950Z,14.40
2018-05-11T05:31:25.258Z,14.30
2018-05-11T05:34:27.234Z,14.70
2018-05-11T05:37:29.404Z,14.50
2018-05-11T05:40:30.661Z,14.50
2018-05-11T05:43:32.021Z,14.30
2018-05-11T05:46:33.310Z,14.20
2018-05-11T05:49:35.294Z,14.10
2018-05-11T05:52:37.987Z,14.10
2018-05-11T05:55:39.985Z,14.10
2018-05-11T05:58:41.233Z,14.10
2018-05-11T06:01:43.200Z,14.10
2018-05-11T06:04:44.526Z,14.10
2018-05-11T06:07:45.786Z,14.20
2018-05-11T06:10:47.079Z,14.20
2018-05-11T06:13:48.302Z,14.40
2018-05-11T06:16:49.538Z,14.50
2018-05-11T06:19:51.542Z,15.90
2018-05-11T06:22:52.783Z,15.90
2018-05-11T06:25:54.765Z,15.10
2018-05-11T06:28:56.773Z,15.00
2018-05-11T06:31:58.014Z,14.90
2018-05-11T06:34:59.241Z,14.80
2018-05-11T06:38:00.491Z,14.70
2018-05-11T06:41:01.761Z,14.70
2018-05-11T06:44:03.014Z,14.70
2018-05-11T06:47:04.249Z,14.60
2018-05-11T06:50:05.494Z,14.40
2018-05-11T06:53:06.735Z,14.40
2018-05-11T06:56:08.730Z,15.60
2018-05-11T06:59:09.959Z,15.60
2018-05-11T07:02:11.179Z,15.20
2018-05-11T07:05:12.408Z,14.90
2018-05-11T07:08:14.366Z,14.70
2018-05-11T07:11:15.614Z,14.70
2018-05-11T07:14:16.881Z,14.80
2018-05-11T07:17:18.129Z,15.00
2018-05-11T07:20:19.377Z,15.00
2018-05-11T07:23:20.610Z,15.00
2018-05-11T07:26:22.596Z,16.60
2018-05-11T07:29:23.859Z,16.50
2018-05-11T07:32:25.106Z,16.10
2018-05-11T07:35:27.103Z,15.60
2018-05-11T07:38:28.334Z,15.60
2018-05-11T07:41:29.601Z,15.40
2018-05-11T07:44:30.867Z,15.50
2018-05-11T07:47:32.138Z,15.60
2018-05-11T07:50:34.138Z,15.50
2018-05-11T07:53:35.385Z,15.50
2018-05-11T07:56:37.359Z,15.60
2018-05-11T07:59:39.305Z,15.60
2018-05-11T08:02:40.546Z,15.60
2018-05-11T08:05:41.775Z,15.70
2018-05-11T08:08:43.801Z,15.30
2018-05-11T08:11:45.080Z,15.30
2018-05-11T08:14:46.340Z,15.40
2018-05-11T08:17:47.621Z,15.40
2018-05-11T08:20:48.893Z,15.30
2018-05-11T08:23:50.902Z,15.50
2018-05-11T08:26:52.201Z,15.50
2018-05-11T08:29:53.413Z,15.60
2018-05-11T08:32:55.412Z,15.40
2018-05-11T08:35:56.741Z,15.40
2018-05-11T08:38:58.649Z,15.30
2018-05-11T08:41:59.916Z,15.30
2018-05-11T08:45:01.176Z,15.30
2018-05-11T08:48:02.443Z,15.70
2018-05-11T08:51:03.683Z,16.10
2018-05-11T08:54:05.693Z,16.30
2018-05-11T08:57:06.952Z,16.30
2018-05-11T09:00:08.225Z,16.00
2018-05-11T09:03:09.499Z,15.80
2018-05-11T09:06:10.776Z,15.80
2018-05-11T09:09:12.034Z,15.90
2018-05-11T09:12:13.258Z,16.00
2018-05-11T09:15:16.057Z,16.10
2018-05-11T09:18:18.068Z,16.20
2018-05-11T09:21:19.313Z,16.20
2018-05-11T09:24:20.535Z,16.50
2018-05-11T09:27:21.774Z,16.40
2018-05-11T09:30:23.057Z,16.40
2018-05-11T09:33:24.295Z,16.50
2018-05-11T09:36:25.546Z,16.70
2018-05-11T09:39:26.923Z,16.60
2018-05-11T09:42:28.109Z,16.80
2018-05-11T09:45:29.412Z,17.00
2018-05-11T09:48:30.696Z,17.30
2018-05-11T09:51:31.964Z,17.60
2018-05-11T09:54:33.258Z,17.40
2018-05-11T09:57:34.525Z,17.00
2018-05-11T10:00:35.826Z,17.10
2018-05-11T10:03:37.812Z,17.40
2018-05-11T10:06:39.091Z,17.40
2018-05-11T10:09:40.370Z,17.70
2018-05-11T10:12:41.644Z,17.50
2018-05-11T10:15:42.904Z,17.50
2018-05-11T10:18:44.164Z,17.70
2018-05-11T10:21:45.395Z,18.00
2018-05-11T10:24:46.675Z,17.80
2018-05-11T10:27:47.918Z,17.50
2018-05-11T10:30:49.147Z,17.60
2018-05-11T10:33:50.413Z,17.90
2018-05-11T10:36:51.677Z,17.80
2018-05-11T10:39:53.035Z,17.70
2018-05-11T10:42:54.203Z,18.00
2018-05-11T10:45:55.459Z,18.30
2018-05-11T10:48:56.709Z,18.40
2018-05-11T10:51:58.695Z,18.70
2018-05-11T10:54:59.951Z,18.70
2018-05-11T10:58:01.194Z,18.90
2018-05-11T11:01:02.478Z,18.90
2018-05-11T11:04:03.731Z,18.40
2018-05-11T11:07:04.983Z,18.30
2018-05-11T11:10:06.221Z,18.60
2018-05-11T11:13:07.483Z,18.80
2018-05-11T11:16:08.773Z,19.00
2018-05-11T11:19:10.041Z,19.20
2018-05-11T11:22:11.307Z,19.40
2018-05-11T11:25:12.554Z,19.10
2018-05-11T11:28:13.814Z,19.10
2018-05-11T11:31:15.090Z,19.40
2018-05-11T11:34:16.409Z,19.60
2018-05-11T11:37:17.636Z,19.70
2018-05-11T11:40:18.879Z,19.80
2018-05-11T11:43:20.145Z,19.90
2018-05-11T11:46:21.426Z,20.00
2018-05-11T11:49:22.667Z,20.10
2018-05-11T11:52:23.953Z,20.20
2018-05-11T11:55:25.934Z,20.40
2018-05-11T11:58:27.194Z,20.40
2018-05-11T12:01:28.468Z,20.40
2018-05-11T12:04:29.695Z,20.50
2018-05-11T12:07:30.974Z,20.60
2018-05-11T12:10:32.221Z,20.70
2018-05-11T12:13:33.462Z,20.80
2018-05-11T12:16:34.710Z,21.00
2018-05-11T12:19:36.725Z,21.20
2018-05-11T12:22:37.949Z,21.20
2018-05-11T12:25:39.923Z,21.00
2018-05-11T12:28:41.917Z,20.40
2018-05-11T12:31:43.928Z,19.90
2018-05-11T12:34:45.182Z,19.90
2018-05-11T12:37:46.455Z,19.60
2018-05-11T12:40:47.697Z,19.30
2018-05-11T12:43:48.942Z,19.20
2018-05-11T12:46:50.193Z,19.20
2018-05-11T12:49:51.476Z,19.10
2018-05-11T12:52:53.552Z,19.10
2018-05-11T12:55:54.776Z,19.10
2018-05-11T12:58:56.020Z,19.00
2018-05-11T13:01:57.266Z,19.20
2018-05-11T13:04:58.536Z,19.20
2018-05-11T13:07:59.813Z,19.00
2018-05-11T13:11:01.096Z,18.80
2018-05-11T13:14:02.346Z,18.90
2018-05-11T13:17:04.361Z,18.90
2018-05-11T13:20:05.601Z,18.80
2018-05-11T13:23:06.839Z,19.10
2018-05-11T13:26:08.105Z,19.30
2018-05-11T13:29:09.397Z,20.00
2018-05-11T13:32:10.649Z,20.60
2018-05-11T13:35:11.922Z,20.70
2018-05-11T13:38:13.167Z,20.20
2018-05-11T13:41:14.420Z,19.90
2018-05-11T13:44:15.643Z,19.50
2018-05-11T13:47:17.642Z,19.30
2018-05-11T13:50:18.915Z,19.30
2018-05-11T13:53:20.174Z,19.80
2018-05-11T13:56:21.462Z,20.20
2018-05-11T13:59:22.745Z,20.10
2018-05-11T14:02:23.995Z,20.20
2018-05-11T14:05:25.241Z,20.10
2018-05-11T14:08:26.486Z,19.70
2018-05-11T14:11:27.743Z,19.50
2018-05-11T14:14:29.000Z,19.50
2018-05-11T14:17:30.978Z,19.80
2018-05-11T14:20:32.992Z,20.70
2018-05-11T14:23:34.229Z,20.70
2018-05-11T14:26:35.507Z,21.20
2018-05-11T14:29:36.734Z,21.50
2018-05-11T14:32:37.980Z,21.80
2018-05-11T14:35:39.222Z,22.20
2018-05-11T14:38:40.475Z,22.10
2018-05-11T14:41:41.729Z,21.70
2018-05-11T14:44:42.959Z,21.30
2018-05-11T14:47:44.920Z,20.80
2018-05-11T14:50:46.174Z,20.80
2018-05-11T14:53:47.395Z,21.20
2018-05-11T14:56:48.638Z,21.50
2018-05-11T14:59:49.902Z,21.60
2018-05-11T15:02:51.166Z,21.80
2018-05-11T15:05:52.422Z,22.00
2018-05-11T15:08:54.441Z,21.40
2018-05-11T15:11:55.716Z,21.40
2018-05-11T15:14:56.966Z,21.50
2018-05-11T15:17:58.209Z,21.70
2018-05-11T15:20:59.473Z,21.60
2018-05-11T15:24:00.749Z,21.80
2018-05-11T15:27:01.996Z,22.00
2018-05-11T15:30:03.276Z,22.00
2018-05-11T15:33:04.537Z,21.60
2018-05-11T15:36:05.783Z,21.20
2018-05-11T15:39:07.064Z,21.20
2018-05-11T15:42:08.311Z,21.30
2018-05-11T15:45:09.579Z,21.20
2018-05-11T15:48:10.821Z,20.90
2018-05-11T15:51:12.825Z,20.70
2018-05-11T15:54:14.097Z,20.70
2018-05-11T15:57:15.378Z,20.80
2018-05-11T16:00:16.637Z,20.60
2018-05-11T16:03:17.886Z,20.50
2018-05-11T16:06:19.109Z,20.40
2018-05-11T16:09:21.101Z,20.30
2018-05-11T16:12:23.116Z,20.10
2018-05-11T16:15:24.411Z,20.10
2018-05-11T16:18:25.661Z,20.00
2018-05-11T16:21:26.906Z,19.90
2018-05-11T16:24:28.170Z,19.80
2018-05-11T16:27:29.443Z,19.80
2018-05-11T16:30:30.726Z,19.90
2018-05-11T16:33:31.973Z,19.80
2018-05-11T16:36:33.202Z,19.80
2018-05-11T16:39:34.455Z,19.70
2018-05-11T16:42:35.706Z,19.60
2018-05-11T16:45:37.706Z,19.80
2018-05-11T16:48:38.959Z,19.80
2018-05-11T16:51:40.983Z,19.70
2018-05-11T16:54:42.219Z,19.70
2018-05-11T16:57:43.473Z,19.70
2018-05-11T17:00:44.724Z,19.80
2018-05-11T17:03:46.009Z,19.70
2018-05-11T17:06:47.249Z,19.60
2018-05-11T17:09:49.275Z,19.50
2018-05-11T17:12:50.522Z,19.50
2018-05-11T17:15:51.797Z,19.70
2018-05-11T17:18:53.065Z,19.70
2018-05-11T17:21:54.299Z,19.70
2018-05-11T17:24:55.572Z,19.70
2018-05-11T17:27:56.827Z,19.60
2018-05-11T17:30:58.095Z,19.60
2018-05-11T17:33:59.319Z,19.40
2018-05-11T17:37:00.585Z,19.30
2018-05-11T17:40:01.839Z,19.20
2018-05-11T17:43:03.188Z,19.20
2018-05-11T17:46:05.148Z,19.00
2018-05-11T17:49:06.422Z,19.00
2018-05-11T17:52:07.668Z,19.00
2018-05-11T17:55:08.925Z,18.90
2018-05-11T17:58:10.200Z,19.00
2018-05-11T18:01:11.500Z,18.90
2018-05-11T18:04:12.742Z,18.90
2018-05-11T18:07:13.994Z,18.80
2018-05-11T18:10:15.276Z,18.80
2018-05-11T18:13:16.554Z,18.80
2018-05-11T18:16:17.813Z,18.80
2018-05-11T18:19:19.055Z,18.70
2018-05-11T18:22:20.309Z,18.70
2018-05-11T18:25:21.565Z,18.80
2018-05-11T18:28:22.828Z,18.70
2018-05-11T18:31:24.077Z,18.60
2018-05-11T18:34:25.345Z,18.60
2018-05-11T18:37:26.612Z,18.60
2018-05-11T18:40:27.891Z,18.60
2018-05-11T18:43:29.126Z,18.60
2018-05-11T18:46:30.401Z,18.50
2018-05-11T18:49:31.658Z,18.50
2018-05-11T18:52:32.924Z,18.40
2018-05-11T18:55:34.189Z,18.50
2018-05-11T18:58:35.452Z,18.50
2018-05-11T19:01:36.777Z,18.40
2018-05-11T19:04:38.069Z,18.40
2018-05-11T19:07:39.360Z,18.30
2018-05-11T19:10:40.617Z,18.30
2018-05-11T19:13:42.628Z,18.20
2018-05-11T19:16:43.924Z,18.10
2018-05-11T19:19:45.938Z,18.10
2018-05-11T19:22:47.190Z,18.10
2018-05-11T19:25:48.470Z,18.00
2018-05-11T19:28:49.749Z,18.10
2018-05-11T19:31:51.054Z,18.10
2018-05-11T19:34:53.035Z,17.90
2018-05-11T19:37:55.063Z,17.90
2018-05-11T19:40:56.327Z,17.90
2018-05-11T19:43:57.620Z,17.80
2018-05-11T19:46:58.914Z,17.80
2018-05-11T19:50:00.962Z,17.70
2018-05-11T19:53:02.268Z,17.70
2018-05-11T19:56:03.664Z,17.60
2018-05-11T19:59:04.876Z,17.70
2018-05-11T20:02:06.906Z,17.60
2018-05-11T20:05:08.189Z,17.60
2018-05-11T20:08:09.464Z,17.60
2018-05-11T20:11:10.737Z,17.60
2018-05-11T20:14:12.022Z,17.70
2018-05-11T20:17:14.006Z,17.70
2018-05-11T20:20:16.042Z,17.70
2018-05-11T20:23:17.332Z,17.70
2018-05-11T20:26:19.362Z,17.70
2018-05-11T20:29:20.658Z,17.70
2018-05-11T20:32:22.043Z,17.70
2018-05-11T20:35:23.212Z,17.70
2018-05-11T20:38:25.238Z,17.50
2018-05-11T20:41:26.493Z,17.40
2018-05-11T20:44:27.794Z,17.40
2018-05-11T20:47:29.103Z,17.40
2018-05-11T20:50:30.381Z,17.30
2018-05-11T20:53:31.637Z,17.30
2018-05-11T20:56:32.890Z,17.30
2018-05-11T20:59:34.921Z,17.40
2018-05-11T21:02:36.205Z,17.40
2018-05-11T21:05:37.456Z,17.50
2018-05-11T21:08:38.764Z,17.50
2018-05-11T21:11:40.015Z,17.50
2018-05-11T21:14:42.170Z,17.60
2018-05-11T21:17:43.306Z,17.60
2018-05-11T21:20:44.614Z,17.70
2018-05-11T21:23:45.899Z,17.60
2018-05-11T21:26:47.917Z,17.70
2018-05-11T21:29:49.175Z,17.60
2018-05-11T21:32:50.471Z,17.50
2018-05-11T21:35:51.739Z,17.60
2018-05-11T21:38:53.005Z,17.60
2018-05-11T21:41:54.282Z,17.50
2018-05-11T21:44:56.336Z,17.60
2018-05-11T21:47:57.598Z,17.60
2018-05-11T21:50:58.876Z,17.50
2018-05-11T21:54:00.162Z,17.50
2018-05-11T21:57:02.208Z,17.30
2018-05-11T22:00:04.370Z,17.30
2018-05-11T22:03:05.676Z,17.30
2018-05-11T22:06:07.689Z,17.20
2018-05-11T22:09:08.978Z,17.20
2018-05-11T22:12:10.257Z,17.10
2018-05-11T22:15:11.555Z,17.30
2018-05-11T22:18:13.575Z,17.20
2018-05-11T22:21:14.827Z,17.20
2018-05-11T22:24:16.114Z,17.20
2018-05-11T22:27:17.437Z,17.20
2018-05-11T22:30:19.542Z,17.20
2018-05-11T22:33:20.803Z,17.20
2018-05-11T22:36:22.125Z,17.20
2018-05-11T22:39:24.158Z,17.10
2018-05-11T22:42:25.432Z,17.10
2018-05-11T22:45:26.701Z,17.20
2018-05-11T22:48:27.975Z,17.20
2018-05-11T22:51:29.237Z,17.20
2018-05-11T22:54:30.470Z,17.20
2018-05-11T22:57:31.703Z,17.20
2018-05-11T23:00:39.934Z,17.10
2018-05-11T23:03:41.978Z,17.10
2018-05-11T23:06:43.182Z,17.10
2018-05-11T23:09:45.158Z,17.20
2018-05-11T23:12:47.158Z,17.20
2018-05-11T23:15:48.408Z,17.20
2018-05-11T23:18:49.669Z,17.20
2018-05-11T23:21:51.650Z,17.20
2018-05-11T23:24:53.620Z,17.30
2018-05-11T23:27:55.650Z,17.20
2018-05-11T23:30:57.614Z,17.20
2018-05-11T23:33:58.874Z,17.20
2018-05-11T23:37:00.150Z,17.20
2018-05-11T23:40:01.380Z,17.20
2018-05-11T23:43:03.424Z,17.20
2018-05-11T23:46:04.663Z,17.20
2018-05-11T23:49:05.937Z,17.20
2018-05-11T23:52:07.183Z,17.10
2018-05-11T23:55:08.469Z,17.20
2018-05-11T23:58:09.736Z,17.20
